sensor_id;sensor_type;location;lat;lon;timestamp;pressure;altitude;pressure_sealevel;temperature;humidity
10732;BME280;5417;42.686;23.244;2022-11-25T00:01:13;94080.03;;;8.22;63.01
10732;BME280;5417;42.686;23.244;2022-11-25T00:03:43;94080.75;;;8.24;62.62
10732;BME280;5417;42.686;23.244;2022-11-25T00:06:15;94084.50;;;8.31;62.27
10732;BME280;5417;42.686;23.244;2022-11-25T00:08:45;94094.91;;;8.42;61.22
10732;BME280;5417;42.686;23.244;2022-11-25T00:11:17;94099.13;;;8.32;62.07
10732;BME280;5417;42.686;23.244;2022-11-25T00:13:45;94094.03;;;8.31;62.02
10732;BME280;5417;42.686;23.244;2022-11-25T00:16:14;94097.13;;;8.24;61.65
10732;BME280;5417;42.686;23.244;2022-11-25T00:18:43;94093.94;;;8.32;61.70
10732;BME280;5417;42.686;23.244;2022-11-25T00:21:15;94089.81;;;8.30;61.51
10732;BME280;5417;42.686;23.244;2022-11-25T00:23:43;94091.28;;;8.34;61.67
10732;BME280;5417;42.686;23.244;2022-11-25T00:26:11;94091.81;;;8.26;61.62
10732;BME280;5417;42.686;23.244;2022-11-25T00:28:42;94097.94;;;8.25;62.21
10732;BME280;5417;42.686;23.244;2022-11-25T00:31:12;94098.66;;;8.27;61.96
10732;BME280;5417;42.686;23.244;2022-11-25T00:33:43;94098.28;;;8.20;63.02
10732;BME280;5417;42.686;23.244;2022-11-25T00:36:15;94101.25;;;8.16;63.38
10732;BME280;5417;42.686;23.244;2022-11-25T00:38:44;94102.53;;;8.21;62.71
10732;BME280;5417;42.686;23.244;2022-11-25T00:41:11;94101.72;;;8.21;62.84
10732;BME280;5417;42.686;23.244;2022-11-25T00:43:59;94103.00;;;8.27;62.65
10732;BME280;5417;42.686;23.244;2022-11-25T00:46:43;94089.81;;;8.30;62.95
10732;BME280;5417;42.686;23.244;2022-11-25T00:49:09;94093.47;;;8.27;62.74
10732;BME280;5417;42.686;23.244;2022-11-25T00:51:36;94093.47;;;8.16;62.73
10732;BME280;5417;42.686;23.244;2022-11-25T00:54:04;94097.94;;;8.14;62.63
10732;BME280;5417;42.686;23.244;2022-11-25T00:56:31;94099.25;;;8.08;63.09
10732;BME280;5417;42.686;23.244;2022-11-25T00:59:01;94097.94;;;8.03;63.71
10732;BME280;5417;42.686;23.244;2022-11-25T01:01:28;94098.78;;;7.92;64.66
10732;BME280;5417;42.686;23.244;2022-11-25T01:03:55;94096.88;;;7.94;64.08
10732;BME280;5417;42.686;23.244;2022-11-25T01:06:22;94095.94;;;7.95;63.96
10732;BME280;5417;42.686;23.244;2022-11-25T01:08:49;94100.66;;;8.01;63.51
10732;BME280;5417;42.686;23.244;2022-11-25T01:11:18;94106.91;;;7.99;64.28
10732;BME280;5417;42.686;23.244;2022-11-25T01:13:46;94104.53;;;7.96;63.74
10732;BME280;5417;42.686;23.244;2022-11-25T01:16:17;94105.84;;;8.01;63.33
10732;BME280;5417;42.686;23.244;2022-11-25T01:18:44;94112.19;;;7.97;63.12
10732;BME280;5417;42.686;23.244;2022-11-25T01:21:16;94111.84;;;8.02;63.00
10732;BME280;5417;42.686;23.244;2022-11-25T01:23:45;94101.25;;;8.05;63.70
10732;BME280;5417;42.686;23.244;2022-11-25T01:26:14;94100.66;;;8.01;62.98
10732;BME280;5417;42.686;23.244;2022-11-25T01:28:42;94100.66;;;8.01;62.62
10732;BME280;5417;42.686;23.244;2022-11-25T01:31:11;94097.81;;;7.93;63.28
10732;BME280;5417;42.686;23.244;2022-11-25T01:33:40;94088.28;;;7.94;64.22
10732;BME280;5417;42.686;23.244;2022-11-25T01:36:10;94088.41;;;8.03;62.15
10732;BME280;5417;42.686;23.244;2022-11-25T01:38:38;94093.22;;;8.08;62.30
10732;BME280;5417;42.686;23.244;2022-11-25T01:41:07;94081.34;;;8.16;61.94
10732;BME280;5417;42.686;23.244;2022-11-25T01:43:35;94085.56;;;8.06;61.39
10732;BME280;5417;42.686;23.244;2022-11-25T01:46:06;94079.91;;;8.12;61.67
10732;BME280;5417;42.686;23.244;2022-11-25T01:48:38;94062.72;;;8.11;61.34
10732;BME280;5417;42.686;23.244;2022-11-25T01:51:17;94054.22;;;8.20;61.25
10732;BME280;5417;42.686;23.244;2022-11-25T01:53:47;94053.41;;;8.20;60.03
10732;BME280;5417;42.686;23.244;2022-11-25T01:56:18;94052.34;;;8.11;60.79
10732;BME280;5417;42.686;23.244;2022-11-25T01:58:47;94061.19;;;8.09;60.99
10732;BME280;5417;42.686;23.244;2022-11-25T02:01:15;94058.38;;;8.01;61.12
10732;BME280;5417;42.686;23.244;2022-11-25T02:03:48;94061.78;;;8.12;61.70
10732;BME280;5417;42.686;23.244;2022-11-25T02:06:21;94063.78;;;7.98;61.16
10732;BME280;5417;42.686;23.244;2022-11-25T02:08:52;94066.84;;;7.80;61.09
10732;BME280;5417;42.686;23.244;2022-11-25T02:11:22;94068.69;;;7.78;61.44
10732;BME280;5417;42.686;23.244;2022-11-25T02:13:52;94070.09;;;7.71;61.22
10732;BME280;5417;42.686;23.244;2022-11-25T02:16:19;94087.06;;;7.75;61.56
10732;BME280;5417;42.686;23.244;2022-11-25T02:18:46;94081.06;;;7.75;61.45
10732;BME280;5417;42.686;23.244;2022-11-25T02:21:18;94087.78;;;7.77;61.43
10732;BME280;5417;42.686;23.244;2022-11-25T02:23:51;94087.75;;;7.66;61.22
10732;BME280;5417;42.686;23.244;2022-11-25T02:26:23;94081.63;;;7.67;61.31
10732;BME280;5417;42.686;23.244;2022-11-25T02:28:50;94088.00;;;7.63;60.80
10732;BME280;5417;42.686;23.244;2022-11-25T02:31:19;94087.75;;;7.55;61.00
10732;BME280;5417;42.686;23.244;2022-11-25T02:33:46;94085.84;;;7.57;61.65
10732;BME280;5417;42.686;23.244;2022-11-25T02:36:15;94094.47;;;7.69;61.74
10732;BME280;5417;42.686;23.244;2022-11-25T02:38:47;94087.19;;;7.74;60.67
10732;BME280;5417;42.686;23.244;2022-11-25T02:41:17;94092.47;;;7.72;60.73
10732;BME280;5417;42.686;23.244;2022-11-25T02:43:48;94088.09;;;7.62;61.42
10732;BME280;5417;42.686;23.244;2022-11-25T02:46:17;94095.06;;;7.72;60.97
10732;BME280;5417;42.686;23.244;2022-11-25T02:48:45;94093.41;;;7.71;59.92
10732;BME280;5417;42.686;23.244;2022-11-25T02:51:15;94086.59;;;7.70;61.37
10732;BME280;5417;42.686;23.244;2022-11-25T02:53:43;94092.75;;;7.80;61.11
10732;BME280;5417;42.686;23.244;2022-11-25T02:56:12;94086.88;;;7.89;60.95
10732;BME280;5417;42.686;23.244;2022-11-25T02:58:39;94098.88;;;8.02;60.68
10732;BME280;5417;42.686;23.244;2022-11-25T03:01:08;94090.88;;;8.05;60.45
10732;BME280;5417;42.686;23.244;2022-11-25T03:03:36;94098.41;;;8.08;60.43
10732;BME280;5417;42.686;23.244;2022-11-25T03:06:03;94103.13;;;8.03;60.88
10732;BME280;5417;42.686;23.244;2022-11-25T03:08:30;94099.00;;;8.00;61.32
10732;BME280;5417;42.686;23.244;2022-11-25T03:10:57;94106.19;;;8.08;60.66
10732;BME280;5417;42.686;23.244;2022-11-25T03:13:24;94103.72;;;8.06;60.75
10732;BME280;5417;42.686;23.244;2022-11-25T03:15:51;94105.59;;;8.04;61.46
10732;BME280;5417;42.686;23.244;2022-11-25T03:18:20;94110.09;;;8.02;61.66
10732;BME280;5417;42.686;23.244;2022-11-25T03:20:51;94108.91;;;7.95;61.89
10732;BME280;5417;42.686;23.244;2022-11-25T03:23:18;94115.50;;;7.99;62.16
10732;BME280;5417;42.686;23.244;2022-11-25T03:25:45;94120.91;;;7.85;62.58
10732;BME280;5417;42.686;23.244;2022-11-25T03:28:12;94126.44;;;7.91;63.33
10732;BME280;5417;42.686;23.244;2022-11-25T03:30:40;94129.84;;;7.92;63.05
10732;BME280;5417;42.686;23.244;2022-11-25T03:33:09;94129.03;;;7.91;64.04
10732;BME280;5417;42.686;23.244;2022-11-25T03:35:39;94129.28;;;7.88;64.19
10732;BME280;5417;42.686;23.244;2022-11-25T03:38:14;94141.03;;;7.81;63.85
10732;BME280;5417;42.686;23.244;2022-11-25T03:40:48;94139.03;;;7.85;64.13
10732;BME280;5417;42.686;23.244;2022-11-25T03:43:17;94132.09;;;7.85;64.52
10732;BME280;5417;42.686;23.244;2022-11-25T03:45:47;94136.69;;;7.82;64.87
10732;BME280;5417;42.686;23.244;2022-11-25T03:48:14;94129.63;;;7.84;64.70
10732;BME280;5417;42.686;23.244;2022-11-25T03:50:43;94143.50;;;7.83;64.79
10732;BME280;5417;42.686;23.244;2022-11-25T03:53:10;94144.06;;;7.75;64.94
10732;BME280;5417;42.686;23.244;2022-11-25T03:55:39;94146.00;;;7.84;65.48
10732;BME280;5417;42.686;23.244;2022-11-25T03:58:06;94145.88;;;7.86;64.17
10732;BME280;5417;42.686;23.244;2022-11-25T04:00:37;94139.03;;;7.85;64.39
10732;BME280;5417;42.686;23.244;2022-11-25T04:03:04;94149.56;;;7.71;64.81
10732;BME280;5417;42.686;23.244;2022-11-25T04:05:31;94156.63;;;7.69;64.56
10732;BME280;5417;42.686;23.244;2022-11-25T04:08:00;94157.31;;;7.59;64.94
10732;BME280;5417;42.686;23.244;2022-11-25T04:10:27;94159.91;;;7.59;65.18
10732;BME280;5417;42.686;23.244;2022-11-25T04:12:56;94167.31;;;7.53;65.43
10732;BME280;5417;42.686;23.244;2022-11-25T04:15:22;94162.50;;;7.59;65.30
10732;BME280;5417;42.686;23.244;2022-11-25T04:17:49;94165.69;;;7.63;65.70
10732;BME280;5417;42.686;23.244;2022-11-25T04:20:18;94168.03;;;7.55;65.25
10732;BME280;5417;42.686;23.244;2022-11-25T04:22:48;94169.56;;;7.57;65.49
10732;BME280;5417;42.686;23.244;2022-11-25T04:25:17;94174.13;;;7.54;65.53
10732;BME280;5417;42.686;23.244;2022-11-25T04:27:44;94178.59;;;7.52;64.77
10732;BME280;5417;42.686;23.244;2022-11-25T04:30:12;94180.13;;;7.54;64.59
10732;BME280;5417;42.686;23.244;2022-11-25T04:32:39;94182.69;;;7.43;65.12
10732;BME280;5417;42.686;23.244;2022-11-25T04:35:08;94189.84;;;7.40;65.68
10732;BME280;5417;42.686;23.244;2022-11-25T04:37:35;94184.56;;;7.41;66.07
10732;BME280;5417;42.686;23.244;2022-11-25T04:40:03;94174.59;;;7.48;64.87
10732;BME280;5417;42.686;23.244;2022-11-25T04:42:31;94194.19;;;7.63;64.08
10732;BME280;5417;42.686;23.244;2022-11-25T04:44:59;94190.66;;;7.64;64.76
10732;BME280;5417;42.686;23.244;2022-11-25T04:47:29;94186.38;;;7.52;64.68
10732;BME280;5417;42.686;23.244;2022-11-25T04:49:56;94183.28;;;7.47;65.74
10732;BME280;5417;42.686;23.244;2022-11-25T04:52:24;94190.72;;;7.51;64.96
10732;BME280;5417;42.686;23.244;2022-11-25T04:54:51;94197.56;;;7.52;65.33
10732;BME280;5417;42.686;23.244;2022-11-25T04:57:18;94200.16;;;7.52;64.53
10732;BME280;5417;42.686;23.244;2022-11-25T04:59:46;94194.25;;;7.50;64.29
10732;BME280;5417;42.686;23.244;2022-11-25T05:02:14;94203.34;;;7.56;64.23
10732;BME280;5417;42.686;23.244;2022-11-25T05:04:43;94216.28;;;7.56;64.35
10732;BME280;5417;42.686;23.244;2022-11-25T05:07:10;94210.41;;;7.54;64.32
10732;BME280;5417;42.686;23.244;2022-11-25T05:09:38;94217.94;;;7.57;64.09
10732;BME280;5417;42.686;23.244;2022-11-25T05:12:06;94226.31;;;7.60;63.77
10732;BME280;5417;42.686;23.244;2022-11-25T05:14:33;94229.47;;;7.53;64.08
10732;BME280;5417;42.686;23.244;2022-11-25T05:17:03;94226.59;;;7.45;64.67
10732;BME280;5417;42.686;23.244;2022-11-25T05:19:30;94231.66;;;7.46;64.14
10732;BME280;5417;42.686;23.244;2022-11-25T05:21:58;94242.28;;;7.54;63.46
10732;BME280;5417;42.686;23.244;2022-11-25T05:24:25;94248.41;;;7.53;64.05
10732;BME280;5417;42.686;23.244;2022-11-25T05:26:52;94250.72;;;7.45;64.15
10732;BME280;5417;42.686;23.244;2022-11-25T05:29:19;94263.84;;;7.55;63.22
10732;BME280;5417;42.686;23.244;2022-11-25T05:31:47;94265.28;;;7.59;63.10
10732;BME280;5417;42.686;23.244;2022-11-25T05:34:17;94265.66;;;7.66;61.73
10732;BME280;5417;42.686;23.244;2022-11-25T05:36:44;94274.69;;;7.60;62.84
10732;BME280;5417;42.686;23.244;2022-11-25T05:39:13;94283.44;;;7.46;62.54
10732;BME280;5417;42.686;23.244;2022-11-25T05:41:40;94284.81;;;7.39;63.45
10732;BME280;5417;42.686;23.244;2022-11-25T05:44:07;94296.72;;;7.42;63.54
10732;BME280;5417;42.686;23.244;2022-11-25T05:46:37;94301.78;;;7.43;62.76
10732;BME280;5417;42.686;23.244;2022-11-25T05:49:03;94299.88;;;7.34;63.34
10732;BME280;5417;42.686;23.244;2022-11-25T05:51:32;94298.72;;;7.38;62.69
10732;BME280;5417;42.686;23.244;2022-11-25T05:53:59;94306.19;;;7.30;62.69
10732;BME280;5417;42.686;23.244;2022-11-25T05:56:28;94307.69;;;7.45;62.55
10732;BME280;5417;42.686;23.244;2022-11-25T05:58:55;94311.41;;;7.78;61.34
10732;BME280;5417;42.686;23.244;2022-11-25T06:01:26;94305.25;;;7.91;60.51
10732;BME280;5417;42.686;23.244;2022-11-25T06:03:54;94312.28;;;8.13;60.21
10732;BME280;5417;42.686;23.244;2022-11-25T06:06:22;94317.13;;;8.42;60.12
10732;BME280;5417;42.686;23.244;2022-11-25T06:08:50;94319.31;;;8.81;60.40
10732;BME280;5417;42.686;23.244;2022-11-25T06:11:18;94325.59;;;8.90;59.20
10732;BME280;5417;42.686;23.244;2022-11-25T06:13:45;94336.50;;;8.60;58.40
10732;BME280;5417;42.686;23.244;2022-11-25T06:16:17;94331.75;;;8.43;60.62
10732;BME280;5417;42.686;23.244;2022-11-25T06:18:46;94330.00;;;8.31;59.58
10732;BME280;5417;42.686;23.244;2022-11-25T06:21:14;94337.44;;;8.00;60.87
10732;BME280;5417;42.686;23.244;2022-11-25T06:23:44;94346.97;;;8.00;60.90
10732;BME280;5417;42.686;23.244;2022-11-25T06:26:14;94338.66;;;7.83;61.28
10732;BME280;5417;42.686;23.244;2022-11-25T06:28:41;94341.72;;;7.65;61.11
10732;BME280;5417;42.686;23.244;2022-11-25T06:31:10;94367.00;;;7.61;60.48
10732;BME280;5417;42.686;23.244;2022-11-25T06:33:37;94366.09;;;7.49;61.51
10732;BME280;5417;42.686;23.244;2022-11-25T06:36:08;94368.59;;;7.51;62.17
10732;BME280;5417;42.686;23.244;2022-11-25T06:38:38;94374.69;;;7.50;62.83
10732;BME280;5417;42.686;23.244;2022-11-25T06:41:05;94376.59;;;7.72;62.26
10732;BME280;5417;42.686;23.244;2022-11-25T06:43:34;94375.22;;;7.79;62.29
10732;BME280;5417;42.686;23.244;2022-11-25T06:46:03;94384.91;;;8.01;61.41
10732;BME280;5417;42.686;23.244;2022-11-25T06:48:31;94374.78;;;7.98;60.77
10732;BME280;5417;42.686;23.244;2022-11-25T06:51:02;94375.16;;;8.04;60.52
10732;BME280;5417;42.686;23.244;2022-11-25T06:53:33;94383.75;;;7.81;61.33
10732;BME280;5417;42.686;23.244;2022-11-25T06:56:04;94388.50;;;7.87;61.27
10732;BME280;5417;42.686;23.244;2022-11-25T06:58:33;94376.88;;;7.93;61.44
10732;BME280;5417;42.686;23.244;2022-11-25T07:01:01;94375.53;;;8.11;61.15
10732;BME280;5417;42.686;23.244;2022-11-25T07:03:31;94377.75;;;8.04;60.73
10732;BME280;5417;42.686;23.244;2022-11-25T07:05:58;94371.50;;;8.07;60.34
10732;BME280;5417;42.686;23.244;2022-11-25T07:08:25;94380.34;;;8.04;60.14
10732;BME280;5417;42.686;23.244;2022-11-25T07:10:53;94375.09;;;7.93;60.87
10732;BME280;5417;42.686;23.244;2022-11-25T07:13:20;94383.19;;;7.88;61.13
10732;BME280;5417;42.686;23.244;2022-11-25T07:15:49;94382.94;;;7.80;60.54
10732;BME280;5417;42.686;23.244;2022-11-25T07:18:16;94381.72;;;7.97;60.90
10732;BME280;5417;42.686;23.244;2022-11-25T07:20:42;94378.78;;;8.02;60.58
10732;BME280;5417;42.686;23.244;2022-11-25T07:23:10;94380.66;;;8.00;61.22
10732;BME280;5417;42.686;23.244;2022-11-25T07:25:37;94390.66;;;7.93;61.20
10732;BME280;5417;42.686;23.244;2022-11-25T07:28:05;94393.63;;;8.00;61.13
10732;BME280;5417;42.686;23.244;2022-11-25T07:30:31;94393.31;;;8.04;60.26
10732;BME280;5417;42.686;23.244;2022-11-25T07:33:00;94374.38;;;7.91;61.41
10732;BME280;5417;42.686;23.244;2022-11-25T07:35:27;94372.91;;;8.00;60.43
10732;BME280;5417;42.686;23.244;2022-11-25T07:37:54;94390.16;;;8.12;60.34
10732;BME280;5417;42.686;23.244;2022-11-25T07:40:22;94382.53;;;8.21;59.72
10732;BME280;5417;42.686;23.244;2022-11-25T07:42:49;94388.31;;;8.38;61.18
10732;BME280;5417;42.686;23.244;2022-11-25T07:45:16;94395.59;;;8.68;59.46
10732;BME280;5417;42.686;23.244;2022-11-25T07:47:43;94391.22;;;9.03;60.15
10732;BME280;5417;42.686;23.244;2022-11-25T07:50:11;94393.59;;;9.17;57.33
10732;BME280;5417;42.686;23.244;2022-11-25T07:52:38;94396.91;;;9.31;57.47
10732;BME280;5417;42.686;23.244;2022-11-25T07:55:07;94386.88;;;9.60;56.93
10732;BME280;5417;42.686;23.244;2022-11-25T07:57:34;94388.88;;;9.78;55.46
10732;BME280;5417;42.686;23.244;2022-11-25T08:00:02;94393.44;;;10.08;55.58
10732;BME280;5417;42.686;23.244;2022-11-25T08:02:29;94393.66;;;10.17;54.10
10732;BME280;5417;42.686;23.244;2022-11-25T08:04:56;94396.41;;;10.04;54.53
10732;BME280;5417;42.686;23.244;2022-11-25T08:07:25;94401.22;;;10.20;54.07
10732;BME280;5417;42.686;23.244;2022-11-25T08:09:52;94413.00;;;10.35;54.05
10732;BME280;5417;42.686;23.244;2022-11-25T08:12:19;94412.56;;;10.30;59.97
10732;BME280;5417;42.686;23.244;2022-11-25T08:14:48;94408.09;;;10.21;54.30
10732;BME280;5417;42.686;23.244;2022-11-25T08:17:15;94412.94;;;10.14;53.47
10732;BME280;5417;42.686;23.244;2022-11-25T08:19:42;94414.84;;;10.01;54.45
10732;BME280;5417;42.686;23.244;2022-11-25T08:22:09;94422.94;;;10.41;58.49
10732;BME280;5417;42.686;23.244;2022-11-25T08:24:38;94424.47;;;10.75;56.56
10732;BME280;5417;42.686;23.244;2022-11-25T08:27:05;94424.88;;;11.13;53.95
10732;BME280;5417;42.686;23.244;2022-11-25T08:29:32;94424.81;;;11.24;52.59
10732;BME280;5417;42.686;23.244;2022-11-25T08:31:59;94420.91;;;11.39;52.25
10732;BME280;5417;42.686;23.244;2022-11-25T08:34:28;94417.09;;;11.43;51.29
10732;BME280;5417;42.686;23.244;2022-11-25T08:36:55;94423.63;;;11.58;50.92
10732;BME280;5417;42.686;23.244;2022-11-25T08:39:22;94417.91;;;11.44;50.72
10732;BME280;5417;42.686;23.244;2022-11-25T08:41:51;94429.94;;;11.56;50.50
10732;BME280;5417;42.686;23.244;2022-11-25T08:44:17;94425.41;;;11.58;50.14
10732;BME280;5417;42.686;23.244;2022-11-25T08:46:44;94428.31;;;11.64;51.47
10732;BME280;5417;42.686;23.244;2022-11-25T08:49:11;94427.66;;;11.72;50.77
10732;BME280;5417;42.686;23.244;2022-11-25T08:51:41;94423.59;;;11.79;50.69
10732;BME280;5417;42.686;23.244;2022-11-25T08:54:21;94419.69;;;11.94;49.14
10732;BME280;5417;42.686;23.244;2022-11-25T08:56:48;94421.94;;;11.48;50.38
10732;BME280;5417;42.686;23.244;2022-11-25T08:59:16;94419.69;;;11.43;50.91
10732;BME280;5417;42.686;23.244;2022-11-25T09:01:43;94420.16;;;11.48;50.50
10732;BME280;5417;42.686;23.244;2022-11-25T09:04:10;94425.28;;;11.59;51.05
10732;BME280;5417;42.686;23.244;2022-11-25T09:06:37;94413.88;;;11.30;51.81
10732;BME280;5417;42.686;23.244;2022-11-25T09:09:07;94424.63;;;11.16;51.02
10732;BME280;5417;42.686;23.244;2022-11-25T09:11:35;94431.56;;;11.05;51.95
10732;BME280;5417;42.686;23.244;2022-11-25T09:14:01;94423.59;;;11.28;52.67
10732;BME280;5417;42.686;23.244;2022-11-25T09:16:30;94421.84;;;11.07;51.08
10732;BME280;5417;42.686;23.244;2022-11-25T09:18:57;94422.78;;;11.06;51.59
10732;BME280;5417;42.686;23.244;2022-11-25T09:21:24;94430.28;;;11.00;51.63
10732;BME280;5417;42.686;23.244;2022-11-25T09:23:52;94418.28;;;11.09;51.29
10732;BME280;5417;42.686;23.244;2022-11-25T09:26:22;94429.00;;;11.15;52.68
10732;BME280;5417;42.686;23.244;2022-11-25T09:28:49;94427.34;;;11.14;51.46
10732;BME280;5417;42.686;23.244;2022-11-25T09:31:17;94424.09;;;11.22;52.34
10732;BME280;5417;42.686;23.244;2022-11-25T09:33:46;94418.31;;;11.39;51.62
10732;BME280;5417;42.686;23.244;2022-11-25T09:36:14;94434.63;;;11.62;52.11
10732;BME280;5417;42.686;23.244;2022-11-25T09:38:42;94437.16;;;11.73;50.63
10732;BME280;5417;42.686;23.244;2022-11-25T09:41:24;94437.69;;;11.77;49.50
10732;BME280;5417;42.686;23.244;2022-11-25T09:44:19;94428.41;;;11.53;49.92
10732;BME280;5417;42.686;23.244;2022-11-25T09:47:13;94437.75;;;11.35;50.91
10732;BME280;5417;42.686;23.244;2022-11-25T09:50:03;94420.25;;;10.95;50.92
10732;BME280;5417;42.686;23.244;2022-11-25T09:52:41;94427.22;;;10.95;50.05
10732;BME280;5417;42.686;23.244;2022-11-25T09:55:15;94426.28;;;10.96;51.75
10732;BME280;5417;42.686;23.244;2022-11-25T09:57:55;94420.13;;;10.97;50.81
10732;BME280;5417;42.686;23.244;2022-11-25T10:00:23;94436.16;;;10.49;51.29
10732;BME280;5417;42.686;23.244;2022-11-25T10:02:58;94433.25;;;10.42;52.09
10732;BME280;5417;42.686;23.244;2022-11-25T10:05:31;94440.66;;;10.47;52.77
10732;BME280;5417;42.686;23.244;2022-11-25T10:08:02;94428.81;;;10.54;51.86
10732;BME280;5417;42.686;23.244;2022-11-25T10:10:41;94431.94;;;10.69;52.47
10732;BME280;5417;42.686;23.244;2022-11-25T10:13:15;94425.59;;;10.94;52.17
10732;BME280;5417;42.686;23.244;2022-11-25T10:15:46;94431.50;;;10.96;52.08
10732;BME280;5417;42.686;23.244;2022-11-25T10:18:18;94430.94;;;10.81;51.11
10732;BME280;5417;42.686;23.244;2022-11-25T10:20:49;94405.47;;;10.85;51.64
10732;BME280;5417;42.686;23.244;2022-11-25T10:23:21;94424.34;;;10.77;50.98
10732;BME280;5417;42.686;23.244;2022-11-25T10:25:52;94429.03;;;10.62;51.08
10732;BME280;5417;42.686;23.244;2022-11-25T10:28:23;94439.84;;;10.47;51.31
10732;BME280;5417;42.686;23.244;2022-11-25T10:30:59;94430.22;;;10.58;51.72
10732;BME280;5417;42.686;23.244;2022-11-25T10:33:29;94425.56;;;10.41;51.54
10732;BME280;5417;42.686;23.244;2022-11-25T10:36:03;94428.63;;;10.46;51.79
10732;BME280;5417;42.686;23.244;2022-11-25T10:38:39;94426.91;;;10.56;52.03
10732;BME280;5417;42.686;23.244;2022-11-25T10:41:12;94430.81;;;10.83;51.01
10732;BME280;5417;42.686;23.244;2022-11-25T10:43:42;94428.00;;;10.54;51.36
10732;BME280;5417;42.686;23.244;2022-11-25T10:46:20;94435.00;;;10.42;51.26
10732;BME280;5417;42.686;23.244;2022-11-25T10:48:58;94427.09;;;10.32;51.70
10732;BME280;5417;42.686;23.244;2022-11-25T10:51:35;94433.94;;;10.33;51.08
10732;BME280;5417;42.686;23.244;2022-11-25T10:54:14;94429.63;;;10.00;52.77
10732;BME280;5417;42.686;23.244;2022-11-25T10:56:47;94427.84;;;9.78;53.12
10732;BME280;5417;42.686;23.244;2022-11-25T10:59:22;94446.88;;;9.79;53.77
10732;BME280;5417;42.686;23.244;2022-11-25T11:01:50;94446.16;;;9.66;54.29
10732;BME280;5417;42.686;23.244;2022-11-25T11:04:18;94439.19;;;9.55;54.42
10732;BME280;5417;42.686;23.244;2022-11-25T11:06:48;94451.50;;;9.64;61.22
10732;BME280;5417;42.686;23.244;2022-11-25T11:09:30;94454.19;;;9.85;55.45
10732;BME280;5417;42.686;23.244;2022-11-25T11:12:07;94461.66;;;10.01;54.91
10732;BME280;5417;42.686;23.244;2022-11-25T11:14:37;94458.44;;;9.75;55.09
10732;BME280;5417;42.686;23.244;2022-11-25T11:17:04;94467.44;;;9.71;54.96
10732;BME280;5417;42.686;23.244;2022-11-25T11:19:31;94466.84;;;9.78;55.95
10732;BME280;5417;42.686;23.244;2022-11-25T11:22:15;94471.56;;;10.07;54.82
10732;BME280;5417;42.686;23.244;2022-11-25T11:24:42;94470.97;;;10.15;54.32
10732;BME280;5417;42.686;23.244;2022-11-25T11:27:18;94465.19;;;10.11;54.33
10732;BME280;5417;42.686;23.244;2022-11-25T11:29:46;94459.41;;;10.07;54.44
10732;BME280;5417;42.686;23.244;2022-11-25T11:32:22;94462.69;;;9.87;54.69
10732;BME280;5417;42.686;23.244;2022-11-25T11:35:01;94462.13;;;9.84;55.72
10732;BME280;5417;42.686;23.244;2022-11-25T11:37:40;94467.31;;;9.72;56.17
10732;BME280;5417;42.686;23.244;2022-11-25T11:40:26;94469.44;;;9.56;58.27
10732;BME280;5417;42.686;23.244;2022-11-25T11:43:08;94460.81;;;9.44;57.81
10732;BME280;5417;42.686;23.244;2022-11-25T11:45:49;94470.84;;;9.49;58.02
10732;BME280;5417;42.686;23.244;2022-11-25T11:48:25;94464.94;;;9.47;57.76
10732;BME280;5417;42.686;23.244;2022-11-25T11:51:00;94472.75;;;9.58;56.63
10732;BME280;5417;42.686;23.244;2022-11-25T11:53:38;94473.69;;;9.57;57.48
10732;BME280;5417;42.686;23.244;2022-11-25T11:56:13;94476.28;;;9.57;57.40
10732;BME280;5417;42.686;23.244;2022-11-25T11:58:53;94459.28;;;9.64;57.79
10732;BME280;5417;42.686;23.244;2022-11-25T12:01:35;94469.19;;;9.70;56.92
10732;BME280;5417;42.686;23.244;2022-11-25T12:04:14;94459.03;;;9.78;56.69
10732;BME280;5417;42.686;23.244;2022-11-25T12:06:54;94467.78;;;10.00;56.39
10732;BME280;5417;42.686;23.244;2022-11-25T12:09:28;94448.53;;;9.80;57.08
10732;BME280;5417;42.686;23.244;2022-11-25T12:11:59;94469.31;;;9.80;56.48
10732;BME280;5417;42.686;23.244;2022-11-25T12:14:34;94471.81;;;9.81;57.22
10732;BME280;5417;42.686;23.244;2022-11-25T12:17:12;94458.34;;;9.54;56.99
10732;BME280;5417;42.686;23.244;2022-11-25T12:19:49;94477.59;;;9.52;57.30
10732;BME280;5417;42.686;23.244;2022-11-25T12:22:45;94475.34;;;9.47;57.19
10732;BME280;5417;42.686;23.244;2022-11-25T12:25:18;94482.44;;;9.45;57.59
10732;BME280;5417;42.686;23.244;2022-11-25T12:27:57;94479.47;;;9.49;57.43
10732;BME280;5417;42.686;23.244;2022-11-25T12:30:35;94480.41;;;9.48;58.10
10732;BME280;5417;42.686;23.244;2022-11-25T12:33:35;94480.19;;;9.52;57.79
10732;BME280;5417;42.686;23.244;2022-11-25T12:36:08;94477.69;;;9.50;59.26
10732;BME280;5417;42.686;23.244;2022-11-25T12:38:37;94480.31;;;9.61;58.60
10732;BME280;5417;42.686;23.244;2022-11-25T12:41:25;94472.16;;;9.55;58.03
10732;BME280;5417;42.686;23.244;2022-11-25T12:44:13;94466.38;;;9.62;57.58
10732;BME280;5417;42.686;23.244;2022-11-25T12:46:51;94461.16;;;9.73;56.77
10732;BME280;5417;42.686;23.244;2022-11-25T12:49:24;94456.66;;;9.87;56.27
10732;BME280;5417;42.686;23.244;2022-11-25T12:52:15;94466.47;;;9.83;56.21
10732;BME280;5417;42.686;23.244;2022-11-25T12:55:12;94462.34;;;9.80;57.08
10732;BME280;5417;42.686;23.244;2022-11-25T13:00:49;94465.06;;;9.57;56.06
10732;BME280;5417;42.686;23.244;2022-11-25T13:03:47;94466.72;;;9.46;57.14
10732;BME280;5417;42.686;23.244;2022-11-25T13:12:39;94454.97;;;9.30;56.43
10732;BME280;5417;42.686;23.244;2022-11-25T13:15:27;94457.56;;;9.18;57.50
10732;BME280;5417;42.686;23.244;2022-11-25T13:17:59;94450.47;;;9.21;57.38
10732;BME280;5417;42.686;23.244;2022-11-25T13:20:46;94454.03;;;9.20;57.40
10732;BME280;5417;42.686;23.244;2022-11-25T13:23:28;94451.06;;;9.13;56.81
10732;BME280;5417;42.686;23.244;2022-11-25T13:29:06;94455.28;;;9.03;58.27
10732;BME280;5417;42.686;23.244;2022-11-25T13:31:58;94462.38;;;9.01;58.02
10732;BME280;5417;42.686;23.244;2022-11-25T13:34:28;94458.94;;;9.00;59.07
10732;BME280;5417;42.686;23.244;2022-11-25T13:37:33;94462.38;;;9.12;58.43
10732;BME280;5417;42.686;23.244;2022-11-25T13:40:18;94465.69;;;9.14;58.33